createdAt,value
2019-03-30T00:01:38.466Z,6.40
2019-03-30T00:04:06.595Z,6.43
2019-03-30T00:06:35.632Z,6.10
2019-03-30T00:09:07.268Z,5.67
2019-03-30T00:11:35.412Z,5.43
2019-03-30T00:14:03.643Z,5.50
2019-03-30T00:16:31.756Z,5.03
2019-03-30T00:18:59.879Z,6.25
2019-03-30T00:21:28.005Z,6.33
2019-03-30T00:23:56.158Z,6.20
2019-03-30T00:26:24.334Z,6.53
2019-03-30T00:28:52.485Z,5.90
2019-03-30T00:31:20.592Z,6.10
2019-03-30T00:33:48.734Z,6.00
2019-03-30T00:36:16.896Z,5.53
2019-03-30T00:38:45.010Z,6.50
2019-03-30T00:41:13.172Z,12.20
2019-03-30T00:43:41.327Z,9.83
2019-03-30T00:46:09.446Z,7.20
2019-03-30T00:48:37.581Z,6.47
2019-03-30T00:51:05.765Z,6.30
2019-03-30T00:53:33.922Z,6.30
2019-03-30T00:56:02.044Z,6.40
2019-03-30T00:58:30.192Z,6.55
2019-03-30T01:00:58.399Z,6.63
2019-03-30T01:03:27.040Z,6.97
2019-03-30T01:05:58.198Z,6.90
2019-03-30T01:08:25.746Z,6.23
2019-03-30T01:10:53.875Z,6.43
2019-03-30T01:13:21.990Z,7.60
2019-03-30T01:15:50.228Z,6.92
2019-03-30T01:18:18.345Z,7.10
2019-03-30T01:20:46.507Z,6.47
2019-03-30T01:23:14.691Z,7.43
2019-03-30T01:25:42.849Z,7.10
2019-03-30T01:28:10.966Z,7.37
2019-03-30T01:30:39.064Z,7.43
2019-03-30T01:33:07.233Z,7.37
2019-03-30T01:35:35.375Z,8.03
2019-03-30T01:38:03.493Z,7.40
2019-03-30T01:40:31.630Z,7.33
2019-03-30T01:42:59.882Z,7.17
2019-03-30T01:45:28.025Z,7.00
2019-03-30T01:47:56.153Z,7.53
2019-03-30T01:50:24.719Z,7.10
2019-03-30T01:52:52.971Z,7.23
2019-03-30T01:55:21.179Z,7.43
2019-03-30T01:57:49.307Z,6.85
2019-03-30T02:00:17.692Z,7.20
2019-03-30T02:02:45.805Z,7.63
2019-03-30T02:05:14.080Z,6.83
2019-03-30T02:07:42.947Z,6.97
2019-03-30T02:10:11.325Z,7.90
2019-03-30T02:12:39.514Z,7.60
2019-03-30T02:15:08.205Z,7.33
2019-03-30T02:17:36.389Z,9.30
2019-03-30T02:20:06.458Z,7.90
2019-03-30T02:22:34.580Z,7.50
2019-03-30T02:25:03.092Z,7.53
2019-03-30T02:27:31.220Z,7.33
2019-03-30T02:29:59.411Z,7.03
2019-03-30T02:32:27.561Z,7.23
2019-03-30T02:34:55.667Z,7.20
2019-03-30T02:37:23.834Z,7.43
2019-03-30T02:39:51.968Z,7.25
2019-03-30T02:42:20.388Z,7.33
2019-03-30T02:44:48.516Z,6.90
2019-03-30T02:47:16.657Z,7.70
2019-03-30T02:49:44.858Z,7.70
2019-03-30T02:52:13.000Z,7.37
2019-03-30T02:54:41.711Z,8.13
2019-03-30T02:57:09.975Z,7.77
2019-03-30T02:59:38.097Z,8.03
2019-03-30T03:02:06.213Z,7.83
2019-03-30T03:04:34.350Z,6.77
2019-03-30T03:07:03.227Z,6.80
2019-03-30T03:09:31.414Z,7.43
2019-03-30T03:11:59.683Z,7.63
2019-03-30T03:14:27.943Z,6.85
2019-03-30T03:16:56.117Z,8.00
2019-03-30T03:19:24.321Z,6.83
2019-03-30T03:21:52.451Z,7.47
2019-03-30T03:24:20.570Z,6.87
2019-03-30T03:26:48.689Z,7.00
2019-03-30T03:29:16.829Z,7.17
2019-03-30T03:31:45.021Z,6.87
2019-03-30T03:34:13.212Z,6.57
2019-03-30T03:36:41.330Z,6.20
2019-03-30T03:39:09.483Z,8.33
2019-03-30T03:41:37.604Z,6.97
2019-03-30T03:44:05.724Z,7.57
2019-03-30T03:46:33.840Z,7.43
2019-03-30T03:49:01.972Z,7.87
2019-03-30T03:51:30.168Z,8.00
2019-03-30T03:53:58.391Z,6.90
2019-03-30T03:56:28.114Z,8.40
2019-03-30T03:58:56.467Z,6.77
2019-03-30T04:01:25.767Z,6.87
2019-03-30T04:03:55.475Z,7.23
2019-03-30T04:06:24.590Z,6.87
2019-03-30T04:08:54.017Z,7.77
2019-03-30T04:11:23.214Z,7.35
2019-03-30T04:13:52.597Z,6.87
2019-03-30T04:16:20.771Z,7.47
2019-03-30T04:18:48.894Z,7.50
2019-03-30T04:21:17.023Z,6.93
2019-03-30T04:23:45.253Z,6.97
2019-03-30T04:26:13.387Z,8.07
2019-03-30T04:28:41.503Z,7.95
2019-03-30T04:31:09.629Z,6.90
2019-03-30T04:33:37.834Z,7.53
2019-03-30T04:36:05.963Z,7.83
2019-03-30T04:38:34.115Z,8.33
2019-03-30T04:41:03.045Z,7.90
2019-03-30T04:43:31.214Z,7.47
2019-03-30T04:45:59.337Z,8.30
2019-03-30T04:48:29.488Z,7.55
2019-03-30T04:50:57.379Z,7.37
2019-03-30T04:53:25.498Z,7.67
2019-03-30T04:55:53.618Z,8.10
2019-03-30T04:58:21.739Z,7.47
2019-03-30T05:00:49.908Z,8.47
2019-03-30T05:03:18.033Z,8.77
2019-03-30T05:05:46.201Z,8.40
2019-03-30T05:08:14.398Z,10.05
2019-03-30T05:10:42.530Z,9.00
2019-03-30T05:13:10.662Z,8.00
2019-03-30T05:15:38.772Z,8.37
2019-03-30T05:18:06.910Z,8.03
2019-03-30T05:20:35.035Z,9.43
2019-03-30T05:23:03.164Z,10.30
2019-03-30T05:25:31.299Z,9.23
2019-03-30T05:27:59.449Z,8.68
2019-03-30T05:33:06.176Z,9.13
2019-03-30T05:35:30.957Z,8.63
2019-03-30T05:38:01.419Z,8.47
2019-03-30T05:40:28.923Z,8.53
2019-03-30T05:42:57.054Z,8.00
2019-03-30T05:45:25.176Z,8.83
2019-03-30T05:47:53.303Z,7.93
2019-03-30T05:50:21.417Z,8.63
2019-03-30T05:52:49.903Z,9.40
2019-03-30T05:55:18.028Z,8.17
2019-03-30T05:57:46.791Z,8.05
2019-03-30T06:00:16.707Z,8.78
2019-03-30T06:02:44.859Z,9.60
2019-03-30T06:05:13.053Z,9.40
2019-03-30T06:07:41.215Z,8.90
2019-03-30T06:10:09.436Z,8.40
2019-03-30T06:12:37.549Z,9.90
2019-03-30T06:15:07.346Z,8.33
2019-03-30T06:17:35.529Z,9.07
2019-03-30T06:20:04.447Z,9.10
2019-03-30T06:22:40.178Z,8.43
2019-03-30T06:25:08.243Z,9.90
2019-03-30T06:27:36.488Z,9.87
2019-03-30T06:30:14.820Z,9.13
2019-03-30T06:32:44.013Z,9.80
2019-03-30T06:35:12.603Z,10.70
2019-03-30T06:37:40.984Z,11.70
2019-03-30T06:40:09.183Z,8.80
2019-03-30T06:42:37.340Z,9.43
2019-03-30T06:45:06.240Z,8.37
2019-03-30T06:47:34.528Z,10.17
2019-03-30T06:50:04.743Z,9.68
2019-03-30T06:52:32.915Z,8.53
2019-03-30T06:55:01.029Z,9.40
2019-03-30T06:57:29.153Z,9.63
2019-03-30T06:59:57.286Z,8.87
2019-03-30T07:02:26.169Z,10.40
2019-03-30T07:04:54.298Z,9.33
2019-03-30T07:07:24.583Z,9.63
2019-03-30T07:09:52.796Z,14.57
2019-03-30T07:12:22.479Z,9.78
2019-03-30T07:14:52.175Z,10.45
2019-03-30T07:17:20.583Z,9.63
2019-03-30T07:19:50.246Z,9.68
2019-03-30T07:22:18.376Z,10.83
2019-03-30T07:24:46.525Z,9.67
2019-03-30T07:27:14.686Z,9.23
2019-03-30T07:29:42.830Z,10.13
2019-03-30T07:32:10.962Z,9.33
2019-03-30T07:34:41.608Z,9.73
2019-03-30T07:37:09.098Z,9.80
2019-03-30T07:39:37.233Z,9.90
2019-03-30T07:42:05.360Z,9.07
2019-03-30T07:44:33.482Z,11.80
2019-03-30T07:47:01.609Z,10.63
2019-03-30T07:49:29.733Z,10.67
2019-03-30T07:51:57.852Z,9.77
2019-03-30T07:54:26.355Z,10.28
2019-03-30T07:57:05.024Z,9.90
2019-03-30T07:59:25.082Z,10.20
2019-03-30T08:01:53.343Z,11.07
2019-03-30T08:04:21.453Z,10.93
2019-03-30T08:06:50.336Z,11.37
2019-03-30T08:09:18.540Z,11.27
2019-03-30T08:11:46.661Z,11.13
2019-03-30T08:14:14.891Z,10.97
2019-03-30T08:16:43.146Z,10.30
2019-03-30T08:19:11.311Z,10.80
2019-03-30T08:21:39.468Z,11.17
2019-03-30T08:24:07.788Z,11.17
2019-03-30T08:26:35.988Z,11.97
2019-03-30T08:29:04.148Z,10.87
2019-03-30T08:31:32.280Z,11.90
2019-03-30T08:34:00.431Z,11.73
2019-03-30T08:36:28.547Z,11.88
2019-03-30T08:38:56.704Z,11.23
2019-03-30T08:41:24.831Z,11.27
2019-03-30T08:43:52.954Z,10.60
2019-03-30T08:46:21.127Z,11.30
2019-03-30T08:48:49.322Z,11.30
2019-03-30T08:51:20.653Z,10.53
2019-03-30T08:53:54.482Z,10.60
2019-03-30T08:56:17.244Z,10.90
2019-03-30T08:58:45.364Z,11.23
2019-03-30T09:01:13.585Z,11.27
2019-03-30T09:03:41.712Z,10.77
2019-03-30T09:06:09.864Z,11.73
2019-03-30T09:08:37.985Z,11.83
2019-03-30T09:11:06.148Z,11.57
2019-03-30T09:13:34.263Z,10.55
2019-03-30T09:16:02.455Z,10.63
2019-03-30T09:18:30.582Z,11.43
2019-03-30T09:20:58.721Z,11.83
2019-03-30T09:23:27.303Z,10.90
2019-03-30T09:25:58.390Z,11.80
2019-03-30T09:28:26.528Z,11.33
2019-03-30T09:30:54.665Z,11.93
2019-03-30T09:33:22.794Z,13.63
2019-03-30T09:35:51.003Z,12.93
2019-03-30T09:38:19.159Z,11.90
2019-03-30T09:40:48.622Z,12.70
2019-03-30T09:43:16.730Z,12.27
2019-03-30T09:45:44.855Z,11.93
2019-03-30T09:48:12.982Z,12.35
2019-03-30T09:50:41.144Z,12.93
2019-03-30T09:53:09.269Z,14.23
2019-03-30T09:55:37.387Z,13.20
2019-03-30T09:58:05.578Z,11.97
2019-03-30T10:00:33.710Z,11.60
2019-03-30T10:03:01.882Z,11.17
2019-03-30T10:05:29.995Z,12.47
2019-03-30T10:07:58.188Z,10.93
2019-03-30T10:10:26.430Z,10.77
2019-03-30T10:12:54.571Z,11.53
2019-03-30T10:15:22.710Z,11.90
2019-03-30T10:17:50.898Z,11.13
2019-03-30T10:20:19.123Z,11.53
2019-03-30T10:22:47.354Z,11.67
2019-03-30T10:25:15.491Z,11.97
2019-03-30T10:27:43.659Z,12.53
2019-03-30T10:30:12.067Z,11.43
2019-03-30T10:32:40.314Z,12.17
2019-03-30T10:35:08.554Z,11.63
2019-03-30T10:37:36.694Z,11.10
2019-03-30T10:40:06.358Z,11.10
2019-03-30T10:42:34.498Z,11.70
2019-03-30T10:45:02.674Z,11.57
2019-03-30T10:47:30.805Z,10.43
2019-03-30T10:49:59.011Z,11.03
2019-03-30T10:52:27.130Z,10.10
2019-03-30T10:54:55.288Z,10.82
2019-03-30T10:57:23.395Z,10.60
2019-03-30T10:59:52.283Z,9.50
2019-03-30T11:02:20.446Z,9.18
2019-03-30T11:04:48.642Z,9.23
2019-03-30T11:07:17.140Z,9.07
2019-03-30T11:09:45.330Z,9.00
2019-03-30T11:12:13.585Z,8.75
2019-03-30T11:14:41.769Z,9.40
2019-03-30T11:17:09.877Z,8.33
2019-03-30T11:19:38.034Z,10.90
2019-03-30T11:22:06.159Z,8.78
2019-03-30T11:24:34.380Z,10.23
2019-03-30T11:27:02.527Z,8.18
2019-03-30T11:29:31.391Z,8.40
2019-03-30T11:31:59.589Z,7.40
2019-03-30T11:34:27.741Z,9.83
2019-03-30T11:36:55.856Z,8.95
2019-03-30T11:39:24.107Z,7.65
2019-03-30T11:41:52.252Z,8.40
2019-03-30T11:44:20.887Z,7.80
2019-03-30T11:46:49.104Z,7.15
2019-03-30T11:49:17.232Z,6.95
2019-03-30T11:51:45.497Z,7.10
2019-03-30T11:54:13.628Z,6.73
2019-03-30T11:56:41.805Z,7.03
2019-03-30T11:59:10.083Z,8.08
2019-03-30T12:01:38.197Z,7.10
2019-03-30T12:04:06.330Z,6.97
2019-03-30T12:06:35.228Z,7.30
2019-03-30T12:09:04.710Z,7.15
2019-03-30T12:11:32.879Z,7.80
2019-03-30T12:14:01.058Z,6.62
2019-03-30T12:16:29.229Z,6.35
2019-03-30T12:18:57.385Z,6.25
2019-03-30T12:21:25.567Z,6.65
2019-03-30T12:23:54.455Z,7.70
2019-03-30T12:26:22.573Z,8.30
2019-03-30T12:28:51.458Z,8.08
2019-03-30T12:31:19.607Z,7.90
2019-03-30T12:33:47.721Z,7.58
2019-03-30T12:36:15.904Z,7.67
2019-03-30T12:38:44.029Z,7.37
2019-03-30T12:41:13.136Z,7.63
2019-03-30T12:43:41.255Z,6.55
2019-03-30T12:46:09.484Z,7.33
2019-03-30T12:48:37.610Z,6.72
2019-03-30T12:51:05.781Z,6.20
2019-03-30T12:53:33.941Z,8.60
2019-03-30T12:56:02.091Z,6.50
2019-03-30T12:58:30.964Z,6.65
2019-03-30T13:00:59.201Z,8.23
2019-03-30T13:03:29.517Z,8.68
2019-03-30T13:05:57.656Z,7.83
2019-03-30T13:08:25.802Z,8.15
2019-03-30T13:10:54.018Z,8.25
2019-03-30T13:13:23.061Z,7.53
2019-03-30T13:15:51.217Z,7.70
2019-03-30T13:18:19.329Z,8.55
2019-03-30T13:20:48.457Z,8.08
2019-03-30T13:23:16.675Z,7.72
2019-03-30T13:25:44.807Z,8.38
2019-03-30T13:28:12.949Z,7.37
2019-03-30T13:30:41.140Z,7.87
2019-03-30T13:33:09.266Z,8.58
2019-03-30T13:35:37.393Z,8.98
2019-03-30T13:38:05.591Z,7.87
2019-03-30T13:40:33.748Z,8.78
2019-03-30T13:43:01.863Z,8.20
2019-03-30T13:45:30.091Z,8.50
2019-03-30T13:47:58.218Z,8.30
2019-03-30T13:50:26.342Z,7.97
2019-03-30T13:52:54.459Z,8.33
2019-03-30T13:55:22.584Z,8.30
2019-03-30T13:57:50.715Z,7.95
2019-03-30T14:00:19.709Z,8.35
2019-03-30T14:02:47.823Z,8.70
2019-03-30T14:05:15.999Z,8.55
2019-03-30T14:07:44.171Z,7.75
2019-03-30T14:10:12.377Z,8.70
2019-03-30T14:12:40.526Z,8.88
2019-03-30T14:15:09.453Z,7.35
2019-03-30T14:17:37.962Z,8.58
2019-03-30T14:20:09.243Z,9.08
2019-03-30T14:22:37.444Z,7.37
2019-03-30T14:25:05.990Z,7.17
2019-03-30T14:27:34.127Z,7.33
2019-03-30T14:30:02.372Z,8.80
2019-03-30T14:32:31.644Z,7.07
2019-03-30T14:34:59.750Z,7.83
2019-03-30T14:37:27.880Z,8.38
2019-03-30T14:39:56.057Z,8.25
2019-03-30T14:42:24.209Z,7.70
2019-03-30T14:44:52.362Z,8.58
2019-03-30T14:47:20.574Z,9.25
2019-03-30T14:49:48.707Z,9.45
2019-03-30T14:52:16.894Z,8.45
2019-03-30T14:54:52.683Z,8.30
2019-03-30T14:57:14.870Z,7.20
2019-03-30T14:59:43.014Z,7.25
2019-03-30T15:02:11.213Z,8.40
2019-03-30T15:04:39.373Z,9.18
2019-03-30T15:07:07.796Z,8.60
2019-03-30T15:09:35.904Z,8.25
2019-03-30T15:12:04.101Z,8.07
2019-03-30T15:14:32.307Z,8.97
2019-03-30T15:17:00.448Z,8.20
2019-03-30T15:19:28.567Z,8.07
2019-03-30T15:21:56.705Z,8.67
2019-03-30T15:24:24.854Z,8.60
2019-03-30T15:26:59.734Z,8.23
2019-03-30T15:29:22.888Z,8.77
2019-03-30T15:31:51.011Z,8.27
2019-03-30T15:34:19.162Z,8.90
2019-03-30T15:36:47.356Z,9.27
2019-03-30T15:39:15.600Z,9.08
2019-03-30T15:41:43.843Z,9.30
2019-03-30T15:44:11.979Z,9.13
2019-03-30T15:46:40.292Z,8.73
2019-03-30T15:49:09.836Z,8.87
2019-03-30T15:51:38.130Z,8.63
2019-03-30T15:54:06.261Z,9.10
2019-03-30T15:56:34.827Z,9.80
2019-03-30T15:59:03.044Z,9.67
2019-03-30T16:01:31.534Z,9.00
2019-03-30T16:04:02.417Z,8.80
2019-03-30T16:06:29.654Z,9.70
2019-03-30T16:08:58.578Z,8.70
2019-03-30T16:11:26.770Z,8.63
2019-03-30T16:13:54.909Z,8.77
2019-03-30T16:16:23.076Z,8.78
2019-03-30T16:18:51.220Z,8.07
2019-03-30T16:21:19.375Z,9.83
2019-03-30T16:23:47.535Z,8.80
2019-03-30T16:26:15.935Z,9.48
2019-03-30T16:28:44.120Z,8.83
2019-03-30T16:31:12.248Z,8.47
2019-03-30T16:33:40.435Z,9.90
2019-03-30T16:36:08.590Z,11.10
2019-03-30T16:38:36.793Z,8.93
2019-03-30T16:41:05.004Z,10.63
2019-03-30T16:43:33.151Z,13.47
2019-03-30T16:46:01.284Z,9.47
2019-03-30T16:48:29.448Z,9.23
2019-03-30T16:50:57.587Z,10.30
2019-03-30T16:53:25.814Z,9.90
2019-03-30T16:55:53.952Z,9.10
2019-03-30T16:58:22.105Z,10.73
2019-03-30T17:00:56.805Z,9.17
2019-03-30T17:03:20.300Z,9.73
2019-03-30T17:05:48.505Z,10.25
2019-03-30T17:08:16.655Z,8.83
2019-03-30T17:10:49.344Z,9.63
2019-03-30T17:13:17.509Z,10.00
2019-03-30T17:15:45.630Z,10.67
2019-03-30T17:18:13.756Z,13.67
2019-03-30T17:20:41.927Z,9.47
2019-03-30T17:23:10.174Z,9.88
2019-03-30T17:25:38.292Z,10.47
2019-03-30T17:28:07.037Z,9.87
2019-03-30T17:30:35.339Z,11.27
2019-03-30T17:33:03.903Z,10.43
2019-03-30T17:35:32.053Z,10.20
2019-03-30T17:38:00.326Z,11.07
2019-03-30T17:40:28.446Z,11.03
2019-03-30T17:42:56.655Z,13.37
2019-03-30T17:45:24.792Z,11.93
2019-03-30T17:47:53.000Z,12.83
2019-03-30T17:50:21.623Z,14.80
2019-03-30T17:52:49.762Z,12.93
2019-03-30T17:55:17.969Z,16.17
2019-03-30T17:57:46.323Z,17.13
2019-03-30T18:00:16.299Z,17.63
2019-03-30T18:02:44.534Z,15.43
2019-03-30T18:05:13.473Z,16.03
2019-03-30T18:07:41.698Z,14.50
2019-03-30T18:10:10.197Z,16.12
2019-03-30T18:12:38.314Z,16.53
2019-03-30T18:15:07.250Z,16.87
2019-03-30T18:17:35.457Z,18.73
2019-03-30T18:20:04.625Z,18.17
2019-03-30T18:22:32.858Z,17.70
2019-03-30T18:25:01.245Z,17.30
2019-03-30T18:27:29.523Z,15.48
2019-03-30T18:29:57.678Z,16.97
2019-03-30T18:32:25.979Z,15.80
2019-03-30T18:34:54.467Z,15.87
2019-03-30T18:37:22.871Z,18.23
2019-03-30T18:39:51.098Z,19.47
2019-03-30T18:42:19.245Z,16.87
2019-03-30T18:44:49.923Z,16.63
2019-03-30T18:47:18.119Z,17.00
2019-03-30T18:49:46.245Z,16.93
2019-03-30T18:52:14.576Z,20.60
2019-03-30T18:54:43.067Z,20.70
2019-03-30T18:57:11.308Z,19.80
2019-03-30T18:59:39.486Z,17.50
2019-03-30T19:02:07.677Z,17.60
2019-03-30T19:04:35.824Z,17.67
2019-03-30T19:07:04.021Z,18.33
2019-03-30T19:09:32.205Z,18.37
2019-03-30T19:12:00.469Z,19.20
2019-03-30T19:14:28.611Z,18.20
2019-03-30T19:16:56.842Z,17.37
2019-03-30T19:19:25.759Z,18.60
2019-03-30T19:21:53.952Z,18.80
2019-03-30T19:24:22.215Z,18.83
2019-03-30T19:26:50.392Z,21.10
2019-03-30T19:29:18.562Z,20.80
2019-03-30T19:31:46.763Z,22.73
2019-03-30T19:34:14.897Z,20.17
2019-03-30T19:36:43.059Z,19.48
2019-03-30T19:39:11.223Z,18.90
2019-03-30T19:41:39.500Z,20.40
2019-03-30T19:44:07.718Z,19.80
2019-03-30T19:46:35.997Z,20.30
2019-03-30T19:49:04.179Z,20.83
2019-03-30T19:51:32.343Z,21.50
2019-03-30T19:54:00.545Z,22.27
2019-03-30T19:56:29.451Z,22.17
2019-03-30T19:59:10.033Z,19.30
2019-03-30T20:01:27.561Z,20.83
2019-03-30T20:03:55.693Z,21.87
2019-03-30T20:06:23.841Z,27.03
2019-03-30T20:08:52.045Z,24.00
2019-03-30T20:11:21.099Z,21.97
2019-03-30T20:13:49.243Z,21.65
2019-03-30T20:16:17.419Z,20.73
2019-03-30T20:18:45.583Z,21.20
2019-03-30T20:21:13.817Z,21.53
2019-03-30T20:23:41.984Z,23.47
2019-03-30T20:26:10.112Z,22.82
2019-03-30T20:28:38.315Z,22.13
2019-03-30T20:31:06.509Z,22.37
2019-03-30T20:33:34.692Z,22.37
2019-03-30T20:36:02.915Z,24.47
2019-03-30T20:38:31.101Z,22.53
2019-03-30T20:40:59.301Z,22.43
2019-03-30T20:43:36.395Z,21.80
2019-03-30T20:46:04.559Z,22.52
2019-03-30T20:48:32.689Z,23.97
2019-03-30T20:51:00.830Z,23.90
2019-03-30T20:53:30.138Z,25.23
2019-03-30T20:55:58.621Z,23.67
2019-03-30T20:58:26.778Z,23.43
2019-03-30T21:00:54.955Z,25.23
2019-03-30T21:03:23.782Z,25.32
2019-03-30T21:05:51.972Z,23.43
2019-03-30T21:08:20.262Z,25.63
2019-03-30T21:10:48.465Z,24.47
2019-03-30T21:13:16.584Z,24.00
2019-03-30T21:15:44.774Z,23.30
2019-03-30T21:18:12.909Z,25.30
2019-03-30T21:20:41.046Z,26.10
2019-03-30T21:23:09.259Z,23.40
2019-03-30T21:25:37.404Z,24.63
2019-03-30T21:28:05.682Z,23.93
2019-03-30T21:30:33.910Z,28.30
2019-03-30T21:33:02.026Z,29.73
2019-03-30T21:35:30.180Z,31.57
2019-03-30T21:37:58.887Z,28.10
2019-03-30T21:40:27.203Z,29.37
2019-03-30T21:42:55.321Z,28.13
2019-03-30T21:45:23.439Z,29.10
2019-03-30T21:47:51.631Z,27.83
2019-03-30T21:50:19.762Z,27.63
2019-03-30T21:52:47.880Z,27.73
2019-03-30T21:55:16.023Z,27.07
2019-03-30T21:57:44.218Z,26.93
2019-03-30T22:00:13.938Z,29.40
2019-03-30T22:02:42.641Z,25.83
2019-03-30T22:05:10.810Z,25.97
2019-03-30T22:07:38.939Z,27.07
2019-03-30T22:10:08.853Z,31.07
2019-03-30T22:12:39.272Z,28.60
2019-03-30T22:15:07.540Z,28.77
2019-03-30T22:17:35.706Z,27.00
2019-03-30T22:20:05.570Z,25.67
2019-03-30T22:22:33.741Z,25.03
2019-03-30T22:25:02.686Z,25.53
2019-03-30T22:27:30.863Z,28.30
2019-03-30T22:29:59.075Z,28.20
2019-03-30T22:32:27.240Z,27.77
2019-03-30T22:34:55.383Z,27.50
2019-03-30T22:37:23.536Z,29.20
2019-03-30T22:39:51.803Z,29.33
2019-03-30T22:42:39.301Z,28.92
2019-03-30T22:45:07.800Z,25.47
2019-03-30T22:47:36.048Z,28.67
2019-03-30T22:50:05.763Z,28.27
2019-03-30T22:52:33.902Z,27.75
2019-03-30T22:55:02.064Z,27.90
2019-03-30T22:57:30.970Z,29.53
2019-03-30T22:59:59.129Z,30.13
2019-03-30T23:02:27.353Z,31.37
2019-03-30T23:04:55.491Z,30.17
2019-03-30T23:07:23.619Z,31.33
2019-03-30T23:09:51.762Z,30.20
2019-03-30T23:12:19.897Z,29.33
2019-03-30T23:14:48.002Z,28.07
2019-03-30T23:17:16.181Z,29.33
2019-03-30T23:19:44.330Z,32.80
2019-03-30T23:22:12.450Z,36.38
2019-03-30T23:24:40.584Z,28.57
2019-03-30T23:27:08.702Z,31.67
2019-03-30T23:29:36.819Z,30.93
2019-03-30T23:32:04.959Z,31.87
2019-03-30T23:34:33.078Z,32.50
2019-03-30T23:37:01.238Z,32.67
2019-03-30T23:39:30.106Z,29.72
2019-03-30T23:41:58.256Z,31.93
2019-03-30T23:44:26.468Z,32.13
2019-03-30T23:46:54.606Z,31.95
2019-03-30T23:49:22.730Z,36.17
2019-03-30T23:51:50.864Z,32.90
2019-03-30T23:54:18.999Z,33.47
2019-03-30T23:56:47.749Z,33.45
2019-03-30T23:59:15.907Z,33.40
